createdAt,value
2019-04-29T00:00:02.867Z,7.10
2019-04-29T00:02:36.304Z,7.00
2019-04-29T00:05:06.908Z,7.00
2019-04-29T00:07:36.228Z,7.00
2019-04-29T00:10:07.110Z,6.90
2019-04-29T00:12:36.212Z,6.90
2019-04-29T00:15:18.196Z,6.90
2019-04-29T00:17:56.577Z,6.90
2019-04-29T00:20:37.848Z,6.70
2019-04-29T00:23:06.960Z,6.70
2019-04-29T00:25:36.192Z,6.80
2019-04-29T00:28:05.145Z,6.80
2019-04-29T00:30:34.216Z,6.90
2019-04-29T00:33:03.209Z,6.90
2019-04-29T00:35:32.083Z,7.00
2019-04-29T00:38:15.381Z,7.00
2019-04-29T00:40:52.781Z,7.00
2019-04-29T00:43:40.253Z,7.00
2019-04-29T00:46:09.833Z,7.00
2019-04-29T00:48:38.888Z,6.90
2019-04-29T00:51:08.217Z,7.00
2019-04-29T00:53:37.449Z,7.00
2019-04-29T00:56:07.007Z,7.00
2019-04-29T00:58:35.884Z,6.90
2019-04-29T01:01:09.292Z,6.90
2019-04-29T01:03:41.067Z,6.80
2019-04-29T01:06:08.854Z,6.80
2019-04-29T01:08:37.844Z,6.80
2019-04-29T01:11:06.846Z,6.80
2019-04-29T01:13:35.826Z,6.80
2019-04-29T01:16:04.812Z,6.80
2019-04-29T01:18:33.808Z,6.80
2019-04-29T01:21:02.798Z,6.80
2019-04-29T01:23:31.724Z,6.80
2019-04-29T01:26:04.652Z,6.70
2019-04-29T01:28:39.688Z,6.60
2019-04-29T01:31:13.997Z,6.60
2019-04-29T01:33:42.880Z,6.50
2019-04-29T01:36:30.872Z,6.40
2019-04-29T01:39:02.585Z,6.30
2019-04-29T01:41:35.988Z,6.20
2019-04-29T01:44:06.104Z,6.20
2019-04-29T01:46:34.978Z,6.20
2019-04-29T01:49:04.012Z,6.20
2019-04-29T01:55:02.000Z,6.00
2019-04-29T01:57:30.972Z,6.00
2019-04-29T01:59:59.985Z,6.00
2019-04-29T02:02:29.283Z,6.00
2019-04-29T02:04:58.524Z,5.90
2019-04-29T02:07:27.488Z,5.90
2019-04-29T02:10:08.404Z,5.90
2019-04-29T02:12:37.409Z,5.90
2019-04-29T02:15:07.085Z,5.90
2019-04-29T02:17:36.344Z,5.90
2019-04-29T02:20:06.308Z,5.80
2019-04-29T02:22:43.394Z,5.90
2019-04-29T02:25:17.260Z,5.80
2019-04-29T02:27:46.134Z,5.90
2019-04-29T02:30:50.657Z,5.90
2019-04-29T02:33:19.656Z,5.90
2019-04-29T02:35:48.896Z,5.90
2019-04-29T02:38:41.983Z,5.90
2019-04-29T02:41:18.444Z,5.90
2019-04-29T02:43:49.315Z,5.90
2019-04-29T02:46:18.618Z,5.90
2019-04-29T02:48:47.521Z,5.80
2019-04-29T02:51:35.592Z,5.80
2019-04-29T02:54:04.825Z,5.70
2019-04-29T02:56:33.915Z,5.60
2019-04-29T02:59:04.793Z,5.60
2019-04-29T03:02:02.004Z,5.50
2019-04-29T03:04:34.736Z,5.60
2019-04-29T03:07:03.733Z,5.60
2019-04-29T03:09:34.272Z,5.60
2019-04-29T03:12:03.500Z,5.60
2019-04-29T03:14:32.978Z,5.70
2019-04-29T03:17:01.916Z,5.70
2019-04-29T03:19:34.866Z,5.60
2019-04-29T03:22:05.504Z,5.60
2019-04-29T03:24:34.538Z,5.50
2019-04-29T03:27:03.824Z,5.50
2019-04-29T03:29:32.973Z,5.60
2019-04-29T03:32:01.853Z,5.50
2019-04-29T03:34:30.721Z,5.50
2019-04-29T03:36:59.594Z,5.40
2019-04-29T03:39:28.575Z,5.40
2019-04-29T03:41:57.380Z,5.50
2019-04-29T03:44:26.169Z,5.40
2019-04-29T03:46:55.069Z,5.40
2019-04-29T03:49:24.282Z,5.50
2019-04-29T03:51:53.220Z,5.50
2019-04-29T03:54:22.133Z,5.60
2019-04-29T03:56:51.132Z,5.60
2019-04-29T03:59:20.036Z,5.60
2019-04-29T04:01:58.513Z,5.50
2019-04-29T04:04:45.049Z,5.50
2019-04-29T04:07:33.144Z,5.50
2019-04-29T04:10:02.167Z,5.50
2019-04-29T04:12:31.097Z,5.50
2019-04-29T04:14:59.961Z,5.40
2019-04-29T04:17:47.918Z,5.30
2019-04-29T04:20:17.074Z,5.30
2019-04-29T04:22:46.908Z,5.30
2019-04-29T04:25:16.438Z,5.30
2019-04-29T04:27:45.309Z,5.30
2019-04-29T04:30:14.708Z,5.30
2019-04-29T04:32:43.653Z,5.20
2019-04-29T04:35:13.409Z,5.20
2019-04-29T04:37:42.266Z,5.20
2019-04-29T04:40:14.557Z,5.10
2019-04-29T04:42:43.717Z,5.10
2019-04-29T04:45:13.477Z,5.10
2019-04-29T04:47:42.364Z,5.10
2019-04-29T04:50:11.329Z,5.10
2019-04-29T04:52:40.137Z,5.10
2019-04-29T04:55:09.880Z,5.10
2019-04-29T04:57:38.760Z,5.20
2019-04-29T05:00:12.388Z,5.20
2019-04-29T05:02:41.293Z,5.20
2019-04-29T05:05:10.664Z,5.20
2019-04-29T05:07:39.572Z,5.20
2019-04-29T05:10:08.483Z,5.20
2019-04-29T05:12:37.297Z,5.10
2019-04-29T05:15:06.557Z,5.20
2019-04-29T05:17:35.473Z,5.20
2019-04-29T05:20:04.493Z,5.30
2019-04-29T05:22:33.432Z,5.40
2019-04-29T05:25:02.337Z,5.40
2019-04-29T05:27:31.413Z,5.40
2019-04-29T05:30:00.232Z,5.50
2019-04-29T05:32:29.048Z,5.50
2019-04-29T05:34:59.720Z,5.60
2019-04-29T05:37:49.386Z,5.60
2019-04-29T05:40:37.332Z,5.70
2019-04-29T05:43:06.888Z,5.70
2019-04-29T05:45:46.243Z,5.70
2019-04-29T05:48:14.533Z,5.80
2019-04-29T05:50:52.120Z,5.90
2019-04-29T05:53:26.212Z,6.00
2019-04-29T05:55:55.089Z,6.10
2019-04-29T05:58:24.022Z,6.20
2019-04-29T06:00:57.453Z,6.20
2019-04-29T06:03:26.429Z,6.30
2019-04-29T06:05:55.686Z,6.40
2019-04-29T06:08:24.560Z,6.40
2019-04-29T06:10:53.376Z,6.40
2019-04-29T06:13:22.416Z,6.50
2019-04-29T06:15:51.379Z,6.50
2019-04-29T06:18:22.074Z,6.60
2019-04-29T06:20:51.020Z,6.70
2019-04-29T06:23:23.091Z,6.80
2019-04-29T06:25:50.376Z,6.90
2019-04-29T06:28:21.655Z,6.90
2019-04-29T06:30:51.609Z,6.90
2019-04-29T06:33:24.319Z,7.00
2019-04-29T06:35:51.044Z,7.10
2019-04-29T06:38:19.809Z,7.10
2019-04-29T06:40:49.724Z,7.20
2019-04-29T06:43:18.732Z,7.20
2019-04-29T06:45:47.621Z,7.30
2019-04-29T06:48:16.604Z,7.40
2019-04-29T06:50:45.488Z,7.50
2019-04-29T06:53:16.467Z,7.60
2019-04-29T06:55:45.025Z,7.70
2019-04-29T06:58:13.844Z,7.70
2019-04-29T07:00:42.796Z,7.80
2019-04-29T07:03:11.828Z,7.80
2019-04-29T07:05:40.754Z,8.00
2019-04-29T07:08:09.606Z,8.10
2019-04-29T07:10:38.377Z,8.20
2019-04-29T07:13:07.424Z,8.30
2019-04-29T07:15:36.644Z,8.40
2019-04-29T07:18:05.680Z,8.50
2019-04-29T07:20:37.130Z,8.60
2019-04-29T07:23:24.431Z,8.60
2019-04-29T07:25:53.226Z,8.70
2019-04-29T07:28:22.108Z,8.70
2019-04-29T07:31:01.138Z,8.90
2019-04-29T07:33:24.116Z,8.90
2019-04-29T07:35:52.162Z,8.90
2019-04-29T07:38:21.226Z,9.00
2019-04-29T07:40:50.099Z,9.10
2019-04-29T07:43:18.888Z,9.10
2019-04-29T07:45:53.904Z,9.10
2019-04-29T07:48:22.699Z,9.20
2019-04-29T07:50:51.592Z,9.30
2019-04-29T07:53:20.959Z,9.40
2019-04-29T07:55:51.405Z,9.60
2019-04-29T07:58:23.057Z,9.60
2019-04-29T08:00:51.077Z,9.70
2019-04-29T08:03:20.240Z,9.90
2019-04-29T08:05:50.652Z,9.90
2019-04-29T08:08:21.302Z,10.10
2019-04-29T08:10:56.051Z,10.20
2019-04-29T08:13:25.128Z,10.40
2019-04-29T08:15:54.109Z,10.40
2019-04-29T08:18:22.998Z,10.60
2019-04-29T08:20:51.920Z,10.60
2019-04-29T08:23:20.920Z,10.70
2019-04-29T08:25:51.081Z,10.80
2019-04-29T08:28:20.008Z,10.90
2019-04-29T08:30:48.792Z,11.00
2019-04-29T08:33:17.807Z,11.10
2019-04-29T08:35:47.025Z,11.10
2019-04-29T08:38:16.177Z,11.20
2019-04-29T08:40:50.033Z,11.30
2019-04-29T08:43:27.045Z,11.30
2019-04-29T08:46:05.975Z,11.50
2019-04-29T08:48:34.961Z,11.50
2019-04-29T08:51:04.160Z,11.70
2019-04-29T08:53:33.077Z,11.70
2019-04-29T08:56:05.546Z,11.80
2019-04-29T08:58:32.838Z,11.90
2019-04-29T09:01:02.004Z,12.00
2019-04-29T09:03:40.181Z,12.10
2019-04-29T09:06:05.531Z,12.20
2019-04-29T09:08:33.147Z,12.20
2019-04-29T09:11:03.054Z,12.30
2019-04-29T09:13:31.936Z,12.40
2019-04-29T09:16:00.817Z,12.50
2019-04-29T09:18:30.077Z,12.60
2019-04-29T09:20:59.104Z,12.70
2019-04-29T09:23:30.624Z,12.80
2019-04-29T09:26:18.514Z,12.90
2019-04-29T09:28:49.811Z,13.00
2019-04-29T09:31:18.814Z,13.00
2019-04-29T09:33:49.265Z,13.10
2019-04-29T09:36:18.588Z,13.30
2019-04-29T09:38:47.597Z,13.40
2019-04-29T09:41:34.991Z,13.50
2019-04-29T09:44:15.984Z,13.60
2019-04-29T09:46:44.885Z,13.90
2019-04-29T09:49:13.905Z,14.10
2019-04-29T09:51:42.722Z,14.20
2019-04-29T09:54:14.502Z,14.30
2019-04-29T09:56:42.643Z,14.40
2019-04-29T09:59:32.233Z,14.50
2019-04-29T10:02:20.243Z,14.70
2019-04-29T10:04:57.128Z,14.80
2019-04-29T10:07:26.085Z,15.00
2019-04-29T10:09:57.417Z,15.10
2019-04-29T10:12:25.708Z,15.10
2019-04-29T10:14:54.692Z,15.20
2019-04-29T10:17:45.868Z,15.30
2019-04-29T10:20:18.541Z,15.40
2019-04-29T10:22:50.270Z,15.50
2019-04-29T10:25:18.832Z,15.60
2019-04-29T10:27:47.737Z,15.70
2019-04-29T10:30:18.880Z,15.70
2019-04-29T10:32:47.870Z,15.80
2019-04-29T10:35:16.948Z,15.90
2019-04-29T10:37:45.856Z,15.90
2019-04-29T10:40:28.184Z,16.00
2019-04-29T10:43:11.462Z,16.00
2019-04-29T10:45:53.252Z,16.00
2019-04-29T10:48:32.624Z,16.10
2019-04-29T10:51:01.615Z,16.20
2019-04-29T10:53:31.006Z,16.20
2019-04-29T10:56:00.950Z,16.30
2019-04-29T10:58:35.447Z,16.30
2019-04-29T11:02:01.822Z,16.40
2019-04-29T11:04:27.348Z,16.40
2019-04-29T11:06:56.737Z,16.50
2019-04-29T11:09:56.708Z,16.50
2019-04-29T11:12:25.740Z,16.70
2019-04-29T11:14:54.712Z,16.80
2019-04-29T11:17:25.592Z,16.90
2019-04-29T11:19:54.676Z,17.20
2019-04-29T11:22:26.644Z,17.30
2019-04-29T11:25:11.812Z,17.40
2019-04-29T11:27:48.856Z,17.40
2019-04-29T11:30:22.109Z,17.40
2019-04-29T11:33:00.083Z,17.40
2019-04-29T11:35:41.316Z,17.50
2019-04-29T11:38:10.557Z,17.50
2019-04-29T11:40:43.497Z,17.50
2019-04-29T11:43:15.644Z,17.50
2019-04-29T11:45:43.085Z,17.60
2019-04-29T11:48:12.660Z,17.60
2019-04-29T11:50:58.685Z,17.60
2019-04-29T11:53:27.649Z,17.60
2019-04-29T11:55:58.546Z,17.60
2019-04-29T11:58:33.232Z,17.60
2019-04-29T12:01:21.236Z,17.60
2019-04-29T12:03:51.485Z,17.70
2019-04-29T12:06:22.096Z,17.90
2019-04-29T12:08:53.381Z,18.00
2019-04-29T12:11:22.388Z,17.90
2019-04-29T12:14:09.554Z,18.00
2019-04-29T12:16:48.788Z,18.10
2019-04-29T12:19:22.547Z,18.10
2019-04-29T12:21:51.591Z,18.10
2019-04-29T12:24:20.471Z,18.10
2019-04-29T12:26:49.564Z,18.10
2019-04-29T12:29:19.582Z,18.10
2019-04-29T12:32:06.912Z,18.00
2019-04-29T12:34:45.187Z,18.00
2019-04-29T12:37:25.626Z,17.80
2019-04-29T12:40:22.120Z,17.80
2019-04-29T12:43:17.689Z,17.90
2019-04-29T12:45:54.248Z,17.90
2019-04-29T12:48:25.061Z,18.00
2019-04-29T12:50:57.303Z,18.10
2019-04-29T12:53:24.641Z,18.20
2019-04-29T12:55:55.296Z,18.30
2019-04-29T12:58:25.838Z,18.30
2019-04-29T13:01:01.236Z,18.30
2019-04-29T13:03:43.556Z,18.30
2019-04-29T13:06:23.557Z,18.10
2019-04-29T13:08:54.266Z,18.20
2019-04-29T13:11:35.938Z,18.30
2019-04-29T13:13:56.723Z,18.40
2019-04-29T13:16:35.070Z,18.40
2019-04-29T13:19:25.218Z,18.30
2019-04-29T13:21:52.729Z,18.20
2019-04-29T13:24:24.542Z,18.20
2019-04-29T13:26:52.418Z,18.30
2019-04-29T13:29:27.370Z,18.10
2019-04-29T13:31:52.051Z,18.10
2019-04-29T13:34:31.131Z,18.00
2019-04-29T13:37:06.692Z,18.00
2019-04-29T13:39:39.349Z,17.90
2019-04-29T13:42:02.891Z,17.90
2019-04-29T13:44:29.776Z,18.00
2019-04-29T13:47:16.628Z,18.00
2019-04-29T13:50:18.064Z,18.10
2019-04-29T13:52:35.750Z,18.00
2019-04-29T13:55:17.227Z,18.00
2019-04-29T13:57:35.479Z,18.00
2019-04-29T14:00:26.029Z,18.00
2019-04-29T14:02:59.645Z,18.10
2019-04-29T14:05:32.412Z,18.10
2019-04-29T14:07:59.970Z,17.90
2019-04-29T14:10:28.942Z,17.90
2019-04-29T14:13:09.777Z,17.80
2019-04-29T14:15:29.576Z,17.70
2019-04-29T14:17:59.140Z,17.70
2019-04-29T14:20:28.660Z,17.80
2019-04-29T14:22:57.601Z,17.70
2019-04-29T14:25:26.561Z,17.70
2019-04-29T14:27:56.032Z,17.70
2019-04-29T14:30:37.859Z,17.70
2019-04-29T14:33:01.726Z,17.70
2019-04-29T14:35:50.021Z,17.60
2019-04-29T14:38:19.066Z,17.60
2019-04-29T14:40:48.442Z,17.40
2019-04-29T14:43:31.259Z,17.30
2019-04-29T14:46:07.676Z,17.20
2019-04-29T14:48:44.320Z,17.20
2019-04-29T14:51:13.216Z,17.10
2019-04-29T14:53:55.106Z,17.00
2019-04-29T14:56:15.710Z,17.00
2019-04-29T14:58:43.667Z,17.00
2019-04-29T15:01:49.753Z,16.90
2019-04-29T15:04:21.886Z,16.90
2019-04-29T15:06:51.026Z,16.60
2019-04-29T15:09:20.217Z,16.60
2019-04-29T15:12:17.096Z,16.60
2019-04-29T15:15:00.827Z,16.50
2019-04-29T15:17:54.844Z,16.40
2019-04-29T15:20:34.235Z,16.40
2019-04-29T15:23:03.452Z,16.30
2019-04-29T15:25:32.444Z,16.30
2019-04-29T15:28:01.364Z,16.30
2019-04-29T15:30:31.666Z,16.20
2019-04-29T15:33:01.388Z,16.10
2019-04-29T15:35:30.264Z,16.00
2019-04-29T15:37:59.288Z,15.90
2019-04-29T15:40:28.741Z,15.80
2019-04-29T15:42:58.098Z,15.70
2019-04-29T15:45:28.059Z,15.50
2019-04-29T15:47:57.968Z,15.30
2019-04-29T15:50:26.964Z,15.30
2019-04-29T15:52:58.810Z,15.20
2019-04-29T15:55:26.832Z,15.10
2019-04-29T15:57:55.642Z,15.10
2019-04-29T16:00:25.509Z,15.10
2019-04-29T16:02:54.918Z,15.00
2019-04-29T16:06:11.062Z,14.90
2019-04-29T16:08:40.428Z,14.80
2019-04-29T16:11:33.501Z,14.80
2019-04-29T16:14:09.407Z,14.80
2019-04-29T16:16:32.873Z,14.70
2019-04-29T16:19:08.112Z,14.60
2019-04-29T16:21:39.075Z,14.70
2019-04-29T16:24:24.320Z,14.60
2019-04-29T16:26:33.900Z,14.50
2019-04-29T16:29:02.724Z,14.40
2019-04-29T16:31:31.560Z,14.40
2019-04-29T16:34:00.635Z,14.20
2019-04-29T16:36:29.544Z,14.20
2019-04-29T16:38:58.741Z,14.10
2019-04-29T16:41:45.453Z,13.90
2019-04-29T16:44:34.041Z,13.90
2019-04-29T16:46:46.093Z,13.80
2019-04-29T16:49:15.504Z,13.70
2019-04-29T16:51:47.978Z,13.60
2019-04-29T16:54:20.554Z,13.50
2019-04-29T16:56:45.624Z,13.40
2019-04-29T16:59:14.672Z,13.40
2019-04-29T17:01:43.540Z,13.30
2019-04-29T17:04:12.916Z,13.30
2019-04-29T17:06:47.182Z,13.20
2019-04-29T17:09:30.373Z,13.20
2019-04-29T17:12:00.704Z,13.30
2019-04-29T17:14:29.938Z,13.30
2019-04-29T17:16:58.908Z,13.40
2019-04-29T17:19:27.775Z,13.40
2019-04-29T17:22:23.769Z,13.40
2019-04-29T17:24:27.193Z,13.40
2019-04-29T17:27:03.716Z,13.50
2019-04-29T17:30:07.874Z,13.40
2019-04-29T17:32:47.854Z,13.40
2019-04-29T17:35:21.323Z,13.20
2019-04-29T17:37:45.302Z,13.10
2019-04-29T17:40:15.847Z,13.10
2019-04-29T17:42:46.928Z,13.00
2019-04-29T17:45:29.073Z,12.90
2019-04-29T17:48:03.872Z,12.90
2019-04-29T17:50:46.414Z,12.80
2019-04-29T17:53:36.172Z,12.80
2019-04-29T17:56:11.396Z,12.70
2019-04-29T17:58:51.497Z,12.60
2019-04-29T18:01:42.850Z,12.70
2019-04-29T18:04:39.780Z,12.70
2019-04-29T18:07:27.989Z,12.80
2019-04-29T18:10:02.784Z,12.70
2019-04-29T18:12:37.634Z,12.70
2019-04-29T18:15:02.435Z,12.60
2019-04-29T18:17:36.161Z,12.60
2019-04-29T18:20:32.252Z,12.60
2019-04-29T18:23:28.918Z,12.60
2019-04-29T18:26:05.296Z,12.70
2019-04-29T18:28:35.800Z,12.70
2019-04-29T18:31:06.949Z,12.70
2019-04-29T18:33:35.864Z,12.70
2019-04-29T18:36:06.972Z,12.60
2019-04-29T18:38:35.472Z,12.60
2019-04-29T18:41:04.484Z,12.60
2019-04-29T18:43:35.388Z,12.60
2019-04-29T18:46:06.045Z,12.60
2019-04-29T18:48:35.397Z,12.50
2019-04-29T18:51:05.715Z,12.40
2019-04-29T18:53:35.477Z,12.30
2019-04-29T18:56:05.275Z,12.20
2019-04-29T18:58:35.638Z,12.10
2019-04-29T19:01:05.410Z,12.10
2019-04-29T19:03:45.758Z,12.00
2019-04-29T19:06:15.766Z,12.00
2019-04-29T19:08:45.010Z,11.90
2019-04-29T19:11:15.305Z,11.90
2019-04-29T19:13:48.390Z,11.90
2019-04-29T19:16:21.601Z,11.90
2019-04-29T19:18:47.462Z,11.90
2019-04-29T19:21:16.813Z,11.80
2019-04-29T19:23:45.914Z,11.90
2019-04-29T19:26:18.236Z,11.90
2019-04-29T19:28:45.816Z,11.90
2019-04-29T19:31:15.189Z,11.90
2019-04-29T19:33:46.091Z,11.80
2019-04-29T19:36:20.315Z,11.80
2019-04-29T19:38:47.253Z,11.80
2019-04-29T19:41:17.970Z,11.80
2019-04-29T19:43:48.283Z,11.80
2019-04-29T19:46:24.142Z,11.70
2019-04-29T19:48:48.016Z,11.70
2019-04-29T19:51:18.541Z,11.80
2019-04-29T19:53:49.579Z,11.80
2019-04-29T19:56:23.111Z,11.90
2019-04-29T19:58:50.094Z,11.90
2019-04-29T20:01:29.842Z,11.90
2019-04-29T20:04:15.756Z,11.90
2019-04-29T20:06:38.706Z,11.90
2019-04-29T20:09:16.955Z,11.90
2019-04-29T20:11:39.372Z,12.00
2019-04-29T20:14:18.267Z,12.00
2019-04-29T20:17:09.528Z,12.00
2019-04-29T20:19:46.304Z,12.10
2019-04-29T20:22:16.081Z,12.00
2019-04-29T20:24:49.529Z,12.00
2019-04-29T20:27:15.969Z,12.00
2019-04-29T20:29:45.773Z,12.00
2019-04-29T20:32:16.578Z,12.00
2019-04-29T20:34:46.052Z,12.00
2019-04-29T20:37:18.423Z,11.90
2019-04-29T20:39:46.122Z,11.90
2019-04-29T20:42:15.887Z,11.90
2019-04-29T20:44:48.830Z,11.90
2019-04-29T20:47:22.703Z,11.90
2019-04-29T20:49:46.501Z,11.90
2019-04-29T20:52:36.493Z,11.90
2019-04-29T20:55:08.970Z,11.90
2019-04-29T20:57:36.757Z,12.00
2019-04-29T21:00:06.541Z,12.00
2019-04-29T21:02:37.450Z,12.00
2019-04-29T21:05:09.841Z,12.10
2019-04-29T21:07:38.300Z,12.10
2019-04-29T21:10:08.842Z,12.10
2019-04-29T21:12:55.976Z,12.10
2019-04-29T21:15:30.578Z,12.10
2019-04-29T21:17:59.576Z,12.10
2019-04-29T21:20:28.540Z,12.20
2019-04-29T21:23:00.941Z,12.20
2019-04-29T21:25:29.429Z,12.20
2019-04-29T21:28:02.243Z,12.20
2019-04-29T21:30:35.070Z,12.30
2019-04-29T21:32:59.960Z,12.20
2019-04-29T21:35:49.607Z,12.20
2019-04-29T21:38:48.318Z,12.20
2019-04-29T21:41:21.862Z,12.10
2019-04-29T21:43:53.527Z,12.20
2019-04-29T21:46:25.721Z,12.20
2019-04-29T21:48:53.419Z,12.20
2019-04-29T21:51:22.580Z,12.20
2019-04-29T21:53:51.728Z,12.20
2019-04-29T21:56:20.768Z,12.20
2019-04-29T21:58:49.792Z,12.20
2019-04-29T22:01:19.170Z,12.20
2019-04-29T22:03:48.132Z,12.20
2019-04-29T22:06:17.037Z,12.20
2019-04-29T22:08:45.926Z,12.20
2019-04-29T22:11:15.582Z,12.20
2019-04-29T22:13:45.813Z,12.20
2019-04-29T22:16:15.758Z,12.20
2019-04-29T22:18:51.803Z,12.20
2019-04-29T22:21:22.189Z,12.20
2019-04-29T22:23:51.235Z,12.30
2019-04-29T22:26:23.088Z,12.20
2019-04-29T22:28:48.889Z,12.20
2019-04-29T22:31:18.908Z,12.20
2019-04-29T22:33:48.955Z,12.20
2019-04-29T22:36:18.395Z,12.20
2019-04-29T22:38:48.602Z,12.20
2019-04-29T22:41:28.499Z,12.20
2019-04-29T22:44:01.148Z,12.20
2019-04-29T22:46:29.941Z,12.30
2019-04-29T22:48:58.733Z,12.30
2019-04-29T22:51:27.636Z,12.20
2019-04-29T22:53:56.692Z,12.30
2019-04-29T22:56:27.648Z,12.20
2019-04-29T22:58:56.136Z,12.30
2019-04-29T23:01:25.956Z,12.30
2019-04-29T23:03:55.488Z,12.30
2019-04-29T23:06:25.875Z,12.30
2019-04-29T23:08:56.103Z,12.20
2019-04-29T23:11:25.516Z,12.20
2019-04-29T23:13:55.432Z,12.20
2019-04-29T23:16:24.775Z,12.30
2019-04-29T23:18:55.231Z,12.30
2019-04-29T23:21:58.701Z,12.20
2019-04-29T23:24:51.319Z,12.30
2019-04-29T23:27:20.052Z,12.30
2019-04-29T23:29:48.941Z,12.30
2019-04-29T23:32:18.093Z,12.30
2019-04-29T23:34:46.940Z,12.30
2019-04-29T23:37:19.555Z,12.30
2019-04-29T23:39:46.828Z,12.30
2019-04-29T23:42:16.264Z,12.30
2019-04-29T23:44:45.828Z,12.30
2019-04-29T23:47:17.434Z,12.30
2019-04-29T23:49:46.806Z,12.20
2019-04-29T23:52:17.837Z,12.20
2019-04-29T23:54:48.568Z,12.20
2019-04-29T23:57:39.853Z,12.30
